Terminal Aerodrome Forecast
Issued by NWS

Home | Current Version | Previous Version | Text Only | Print | Product List | Glossary On
Versions: 1 2 3 4 5 6 7 8 9 10 11 12 13 14 15 16 17 18 19 20 21 22 23 24 25 26 27 28 29 30 31 32 33 34 35
000
FTUS41 KOKX 232334
TAFTEB
TAF
KTEB 232334Z 2400/2424 VRB03KT P6SM BKN120
     FM240800 03004KT 6SM -RA SCT030 OVC060
     FM241400 03008KT P6SM SCT035 OVC060
     FM242100 10008KT P6SM FEW035 OVC060=

USA.gov is the U.S. government's official web portal to all federal, state and local government web resources and services.